sensor_id;sensor_type;location;lat;lon;timestamp;P1;P2;P0
62846;PMS5003;49477;35.676;139.586;2023-07-31T00:02:04;8;7;
62846;PMS5003;49477;35.676;139.586;2023-07-31T00:04:33;8;8;
62846;PMS5003;49477;35.676;139.586;2023-07-31T00:07:03;7;7;
62846;PMS5003;49477;35.676;139.586;2023-07-31T00:09:33;7;7;
62846;PMS5003;49477;35.676;139.586;2023-07-31T00:12:04;9;7;
62846;PMS5003;49477;35.676;139.586;2023-07-31T00:14:33;6;6;
62846;PMS5003;49477;35.676;139.586;2023-07-31T00:17:02;7;7;
62846;PMS5003;49477;35.676;139.586;2023-07-31T00:19:32;9;8;
62846;PMS5003;49477;35.676;139.586;2023-07-31T00:22:01;9;7;
62846;PMS5003;49477;35.676;139.586;2023-07-31T00:24:30;7;7;
62846;PMS5003;49477;35.676;139.586;2023-07-31T00:27:00;6;6;
62846;PMS5003;49477;35.676;139.586;2023-07-31T00:29:29;6;6;
62846;PMS5003;49477;35.676;139.586;2023-07-31T00:31:59;10;9;
62846;PMS5003;49477;35.676;139.586;2023-07-31T00:34:28;6;6;
62846;PMS5003;49477;35.676;139.586;2023-07-31T00:36:58;8;7;
62846;PMS5003;49477;35.676;139.586;2023-07-31T00:39:27;6;6;
62846;PMS5003;49477;35.676;139.586;2023-07-31T00:41:58;5;5;
62846;PMS5003;49477;35.676;139.586;2023-07-31T00:44:27;7;5;
62846;PMS5003;49477;35.676;139.586;2023-07-31T00:46:56;7;7;
62846;PMS5003;49477;35.676;139.586;2023-07-31T00:49:25;7;7;
62846;PMS5003;49477;35.676;139.586;2023-07-31T00:51:55;9;7;
62846;PMS5003;49477;35.676;139.586;2023-07-31T00:54:24;8;8;
62846;PMS5003;49477;35.676;139.586;2023-07-31T00:56:54;5;5;
62846;PMS5003;49477;35.676;139.586;2023-07-31T00:59:23;8;7;
62846;PMS5003;49477;35.676;139.586;2023-07-31T01:01:53;8;8;
62846;PMS5003;49477;35.676;139.586;2023-07-31T01:04:22;8;7;
62846;PMS5003;49477;35.676;139.586;2023-07-31T01:06:55;5;5;
62846;PMS5003;49477;35.676;139.586;2023-07-31T01:09:31;6;6;
62846;PMS5003;49477;35.676;139.586;2023-07-31T01:12:06;7;7;
62846;PMS5003;49477;35.676;139.586;2023-07-31T01:14:40;4;4;
62846;PMS5003;49477;35.676;139.586;2023-07-31T01:17:18;7;6;
62846;PMS5003;49477;35.676;139.586;2023-07-31T01:19:47;5;5;
62846;PMS5003;49477;35.676;139.586;2023-07-31T01:22:24;6;6;
62846;PMS5003;49477;35.676;139.586;2023-07-31T01:25:12;6;6;
62846;PMS5003;49477;35.676;139.586;2023-07-31T01:27:57;7;7;
62846;PMS5003;49477;35.676;139.586;2023-07-31T01:30:33;7;7;
62846;PMS5003;49477;35.676;139.586;2023-07-31T01:33:07;6;6;
62846;PMS5003;49477;35.676;139.586;2023-07-31T01:35:37;6;6;
62846;PMS5003;49477;35.676;139.586;2023-07-31T01:38:07;7;7;
62846;PMS5003;49477;35.676;139.586;2023-07-31T01:40:36;4;4;
62846;PMS5003;49477;35.676;139.586;2023-07-31T01:43:08;6;6;
62846;PMS5003;49477;35.676;139.586;2023-07-31T01:45:38;8;7;
62846;PMS5003;49477;35.676;139.586;2023-07-31T01:48:07;6;6;
62846;PMS5003;49477;35.676;139.586;2023-07-31T01:50:37;4;4;
62846;PMS5003;49477;35.676;139.586;2023-07-31T01:53:06;6;6;
62846;PMS5003;49477;35.676;139.586;2023-07-31T01:55:35;6;6;
62846;PMS5003;49477;35.676;139.586;2023-07-31T01:58:05;5;5;
62846;PMS5003;49477;35.676;139.586;2023-07-31T02:00:33;8;5;
62846;PMS5003;49477;35.676;139.586;2023-07-31T02:03:03;7;7;
62846;PMS5003;49477;35.676;139.586;2023-07-31T02:05:32;7;7;
62846;PMS5003;49477;35.676;139.586;2023-07-31T02:08:01;8;8;
62846;PMS5003;49477;35.676;139.586;2023-07-31T02:10:31;6;4;
62846;PMS5003;49477;35.676;139.586;2023-07-31T02:13:00;10;6;
62846;PMS5003;49477;35.676;139.586;2023-07-31T02:15:30;5;5;
62846;PMS5003;49477;35.676;139.586;2023-07-31T02:17:59;6;5;
62846;PMS5003;49477;35.676;139.586;2023-07-31T02:20:32;6;5;
62846;PMS5003;49477;35.676;139.586;2023-07-31T02:23:02;3;3;
62846;PMS5003;49477;35.676;139.586;2023-07-31T02:25:31;3;3;
62846;PMS5003;49477;35.676;139.586;2023-07-31T02:28:02;5;5;
62846;PMS5003;49477;35.676;139.586;2023-07-31T02:30:32;6;6;
62846;PMS5003;49477;35.676;139.586;2023-07-31T02:33:02;6;6;
62846;PMS5003;49477;35.676;139.586;2023-07-31T02:35:31;5;5;
62846;PMS5003;49477;35.676;139.586;2023-07-31T02:38:01;3;3;
62846;PMS5003;49477;35.676;139.586;2023-07-31T02:40:30;4;4;
62846;PMS5003;49477;35.676;139.586;2023-07-31T02:43:00;5;5;
62846;PMS5003;49477;35.676;139.586;2023-07-31T02:45:29;6;4;
62846;PMS5003;49477;35.676;139.586;2023-07-31T02:47:59;5;5;
62846;PMS5003;49477;35.676;139.586;2023-07-31T02:50:28;4;4;
62846;PMS5003;49477;35.676;139.586;2023-07-31T02:52:58;5;5;
62846;PMS5003;49477;35.676;139.586;2023-07-31T02:55:28;5;5;
62846;PMS5003;49477;35.676;139.586;2023-07-31T02:57:58;4;4;
62846;PMS5003;49477;35.676;139.586;2023-07-31T03:00:28;5;5;
62846;PMS5003;49477;35.676;139.586;2023-07-31T03:02:57;5;5;
62846;PMS5003;49477;35.676;139.586;2023-07-31T03:05:27;5;5;
62846;PMS5003;49477;35.676;139.586;2023-07-31T03:07:58;5;5;
62846;PMS5003;49477;35.676;139.586;2023-07-31T03:10:27;4;4;
62846;PMS5003;49477;35.676;139.586;2023-07-31T03:12:57;4;4;
62846;PMS5003;49477;35.676;139.586;2023-07-31T03:15:26;5;5;
62846;PMS5003;49477;35.676;139.586;2023-07-31T03:17:56;5;5;
62846;PMS5003;49477;35.676;139.586;2023-07-31T03:20:25;4;4;
62846;PMS5003;49477;35.676;139.586;2023-07-31T03:22:55;7;6;
62846;PMS5003;49477;35.676;139.586;2023-07-31T03:25:25;4;4;
62846;PMS5003;49477;35.676;139.586;2023-07-31T03:27:55;4;4;
62846;PMS5003;49477;35.676;139.586;2023-07-31T03:30:24;5;5;
62846;PMS5003;49477;35.676;139.586;2023-07-31T03:32:54;5;4;
62846;PMS5003;49477;35.676;139.586;2023-07-31T03:35:23;6;4;
62846;PMS5003;49477;35.676;139.586;2023-07-31T03:37:53;4;3;
62846;PMS5003;49477;35.676;139.586;2023-07-31T03:40:22;3;3;
62846;PMS5003;49477;35.676;139.586;2023-07-31T03:42:58;5;5;
62846;PMS5003;49477;35.676;139.586;2023-07-31T03:45:27;4;4;
62846;PMS5003;49477;35.676;139.586;2023-07-31T03:47:56;6;5;
62846;PMS5003;49477;35.676;139.586;2023-07-31T03:50:26;3;3;
62846;PMS5003;49477;35.676;139.586;2023-07-31T03:52:55;4;4;
62846;PMS5003;49477;35.676;139.586;2023-07-31T03:55:25;4;4;
62846;PMS5003;49477;35.676;139.586;2023-07-31T03:57:54;3;3;
62846;PMS5003;49477;35.676;139.586;2023-07-31T04:00:24;4;4;
62846;PMS5003;49477;35.676;139.586;2023-07-31T04:02:53;3;3;
62846;PMS5003;49477;35.676;139.586;2023-07-31T04:05:23;2;2;
62846;PMS5003;49477;35.676;139.586;2023-07-31T04:07:53;3;3;
62846;PMS5003;49477;35.676;139.586;2023-07-31T04:10:22;4;4;
62846;PMS5003;49477;35.676;139.586;2023-07-31T04:12:52;3;3;
62846;PMS5003;49477;35.676;139.586;2023-07-31T04:15:21;3;3;
62846;PMS5003;49477;35.676;139.586;2023-07-31T04:17:51;2;2;
62846;PMS5003;49477;35.676;139.586;2023-07-31T04:20:21;3;3;
62846;PMS5003;49477;35.676;139.586;2023-07-31T04:22:51;4;4;
62846;PMS5003;49477;35.676;139.586;2023-07-31T04:25:19;3;3;
62846;PMS5003;49477;35.676;139.586;2023-07-31T04:27:49;4;2;
62846;PMS5003;49477;35.676;139.586;2023-07-31T04:30:18;2;2;
62846;PMS5003;49477;35.676;139.586;2023-07-31T04:32:48;2;2;
62846;PMS5003;49477;35.676;139.586;2023-07-31T04:35:18;4;3;
62846;PMS5003;49477;35.676;139.586;2023-07-31T04:37:47;4;4;
62846;PMS5003;49477;35.676;139.586;2023-07-31T04:40:17;1;1;
62846;PMS5003;49477;35.676;139.586;2023-07-31T04:42:46;3;3;
62846;PMS5003;49477;35.676;139.586;2023-07-31T04:45:16;2;2;
62846;PMS5003;49477;35.676;139.586;2023-07-31T04:47:45;2;2;
62846;PMS5003;49477;35.676;139.586;2023-07-31T04:50:15;2;2;
62846;PMS5003;49477;35.676;139.586;2023-07-31T04:52:44;2;2;
62846;PMS5003;49477;35.676;139.586;2023-07-31T04:55:18;3;1;
62846;PMS5003;49477;35.676;139.586;2023-07-31T04:57:47;1;1;
62846;PMS5003;49477;35.676;139.586;2023-07-31T05:00:17;2;2;
62846;PMS5003;49477;35.676;139.586;2023-07-31T05:02:46;2;2;
62846;PMS5003;49477;35.676;139.586;2023-07-31T05:05:16;3;3;
62846;PMS5003;49477;35.676;139.586;2023-07-31T05:07:45;2;1;
62846;PMS5003;49477;35.676;139.586;2023-07-31T05:10:21;3;3;
62846;PMS5003;49477;35.676;139.586;2023-07-31T05:12:50;2;2;
62846;PMS5003;49477;35.676;139.586;2023-07-31T05:15:19;3;3;
62846;PMS5003;49477;35.676;139.586;2023-07-31T05:17:49;2;2;
62846;PMS5003;49477;35.676;139.586;2023-07-31T05:20:18;1;1;
62846;PMS5003;49477;35.676;139.586;2023-07-31T05:22:48;2;2;
62846;PMS5003;49477;35.676;139.586;2023-07-31T05:25:23;0;0;
62846;PMS5003;49477;35.676;139.586;2023-07-31T05:27:52;1;1;
62846;PMS5003;49477;35.676;139.586;2023-07-31T05:30:21;3;3;
62846;PMS5003;49477;35.676;139.586;2023-07-31T05:32:51;2;2;
62846;PMS5003;49477;35.676;139.586;2023-07-31T05:35:20;2;2;
62846;PMS5003;49477;35.676;139.586;2023-07-31T05:37:49;2;2;
62846;PMS5003;49477;35.676;139.586;2023-07-31T05:40:19;1;1;
62846;PMS5003;49477;35.676;139.586;2023-07-31T05:42:48;0;0;
62846;PMS5003;49477;35.676;139.586;2023-07-31T05:45:18;2;2;
62846;PMS5003;49477;35.676;139.586;2023-07-31T05:47:47;2;2;
62846;PMS5003;49477;35.676;139.586;2023-07-31T05:50:18;4;4;
62846;PMS5003;49477;35.676;139.586;2023-07-31T05:52:48;2;2;
62846;PMS5003;49477;35.676;139.586;2023-07-31T05:55:17;2;2;
62846;PMS5003;49477;35.676;139.586;2023-07-31T05:57:46;2;2;
62846;PMS5003;49477;35.676;139.586;2023-07-31T06:00:16;4;4;
62846;PMS5003;49477;35.676;139.586;2023-07-31T06:02:46;4;4;
62846;PMS5003;49477;35.676;139.586;2023-07-31T06:05:16;5;5;
62846;PMS5003;49477;35.676;139.586;2023-07-31T06:07:45;4;4;
62846;PMS5003;49477;35.676;139.586;2023-07-31T06:10:15;3;3;
62846;PMS5003;49477;35.676;139.586;2023-07-31T06:12:44;5;3;
62846;PMS5003;49477;35.676;139.586;2023-07-31T06:15:13;9;7;
62846;PMS5003;49477;35.676;139.586;2023-07-31T06:17:43;4;4;
62846;PMS5003;49477;35.676;139.586;2023-07-31T06:20:13;4;4;
62846;PMS5003;49477;35.676;139.586;2023-07-31T06:22:42;4;4;
62846;PMS5003;49477;35.676;139.586;2023-07-31T06:25:12;5;5;
62846;PMS5003;49477;35.676;139.586;2023-07-31T06:27:41;5;4;
62846;PMS5003;49477;35.676;139.586;2023-07-31T06:30:11;6;6;
62846;PMS5003;49477;35.676;139.586;2023-07-31T06:32:40;5;5;
62846;PMS5003;49477;35.676;139.586;2023-07-31T06:35:09;6;6;
62846;PMS5003;49477;35.676;139.586;2023-07-31T06:37:38;2;2;
62846;PMS5003;49477;35.676;139.586;2023-07-31T06:40:08;3;3;
62846;PMS5003;49477;35.676;139.586;2023-07-31T06:42:39;4;4;
62846;PMS5003;49477;35.676;139.586;2023-07-31T06:45:08;2;2;
62846;PMS5003;49477;35.676;139.586;2023-07-31T06:47:37;3;3;
62846;PMS5003;49477;35.676;139.586;2023-07-31T06:50:07;2;2;
62846;PMS5003;49477;35.676;139.586;2023-07-31T06:52:37;1;1;
62846;PMS5003;49477;35.676;139.586;2023-07-31T06:55:16;1;1;
62846;PMS5003;49477;35.676;139.586;2023-07-31T06:57:47;2;2;
62846;PMS5003;49477;35.676;139.586;2023-07-31T07:00:19;3;3;
62846;PMS5003;49477;35.676;139.586;2023-07-31T07:02:49;3;3;
62846;PMS5003;49477;35.676;139.586;2023-07-31T07:05:18;3;3;
62846;PMS5003;49477;35.676;139.586;2023-07-31T07:07:49;2;2;
62846;PMS5003;49477;35.676;139.586;2023-07-31T07:10:18;2;2;
62846;PMS5003;49477;35.676;139.586;2023-07-31T07:12:48;2;2;
62846;PMS5003;49477;35.676;139.586;2023-07-31T07:15:17;3;2;
62846;PMS5003;49477;35.676;139.586;2023-07-31T07:17:47;2;2;
62846;PMS5003;49477;35.676;139.586;2023-07-31T07:20:16;2;2;
62846;PMS5003;49477;35.676;139.586;2023-07-31T07:22:45;3;3;
62846;PMS5003;49477;35.676;139.586;2023-07-31T07:25:14;3;3;
62846;PMS5003;49477;35.676;139.586;2023-07-31T07:27:43;4;4;
62846;PMS5003;49477;35.676;139.586;2023-07-31T07:30:13;3;3;
62846;PMS5003;49477;35.676;139.586;2023-07-31T07:32:42;2;2;
62846;PMS5003;49477;35.676;139.586;2023-07-31T07:35:12;2;2;
62846;PMS5003;49477;35.676;139.586;2023-07-31T07:37:41;3;3;
62846;PMS5003;49477;35.676;139.586;2023-07-31T07:40:11;2;2;
62846;PMS5003;49477;35.676;139.586;2023-07-31T07:42:41;2;2;
62846;PMS5003;49477;35.676;139.586;2023-07-31T07:45:10;2;2;
62846;PMS5003;49477;35.676;139.586;2023-07-31T07:47:40;3;3;
62846;PMS5003;49477;35.676;139.586;2023-07-31T07:50:09;4;4;
62846;PMS5003;49477;35.676;139.586;2023-07-31T07:52:39;3;3;
62846;PMS5003;49477;35.676;139.586;2023-07-31T07:55:08;2;2;
62846;PMS5003;49477;35.676;139.586;2023-07-31T07:57:37;2;2;
62846;PMS5003;49477;35.676;139.586;2023-07-31T08:00:06;1;1;
62846;PMS5003;49477;35.676;139.586;2023-07-31T08:02:36;1;1;
62846;PMS5003;49477;35.676;139.586;2023-07-31T08:05:06;2;2;
62846;PMS5003;49477;35.676;139.586;2023-07-31T08:07:35;2;2;
62846;PMS5003;49477;35.676;139.586;2023-07-31T08:10:05;3;3;
62846;PMS5003;49477;35.676;139.586;2023-07-31T08:12:35;2;2;
62846;PMS5003;49477;35.676;139.586;2023-07-31T08:15:04;3;3;
62846;PMS5003;49477;35.676;139.586;2023-07-31T08:17:34;2;2;
62846;PMS5003;49477;35.676;139.586;2023-07-31T08:20:04;5;3;
62846;PMS5003;49477;35.676;139.586;2023-07-31T08:22:35;0;0;
62846;PMS5003;49477;35.676;139.586;2023-07-31T08:25:04;2;2;
62846;PMS5003;49477;35.676;139.586;2023-07-31T08:27:33;2;2;
62846;PMS5003;49477;35.676;139.586;2023-07-31T08:30:03;2;2;
62846;PMS5003;49477;35.676;139.586;2023-07-31T08:32:34;2;2;
62846;PMS5003;49477;35.676;139.586;2023-07-31T08:35:04;3;3;
62846;PMS5003;49477;35.676;139.586;2023-07-31T08:37:39;1;1;
62846;PMS5003;49477;35.676;139.586;2023-07-31T08:40:08;2;2;
62846;PMS5003;49477;35.676;139.586;2023-07-31T08:42:44;1;1;
62846;PMS5003;49477;35.676;139.586;2023-07-31T08:45:15;0;0;
62846;PMS5003;49477;35.676;139.586;2023-07-31T08:47:45;1;1;
62846;PMS5003;49477;35.676;139.586;2023-07-31T08:50:18;1;1;
62846;PMS5003;49477;35.676;139.586;2023-07-31T08:52:48;0;0;
62846;PMS5003;49477;35.676;139.586;2023-07-31T08:55:19;1;1;
62846;PMS5003;49477;35.676;139.586;2023-07-31T08:57:49;1;1;
62846;PMS5003;49477;35.676;139.586;2023-07-31T09:00:19;3;1;
62846;PMS5003;49477;35.676;139.586;2023-07-31T09:02:52;3;1;
62846;PMS5003;49477;35.676;139.586;2023-07-31T09:05:26;3;2;
62846;PMS5003;49477;35.676;139.586;2023-07-31T09:07:57;4;2;
62846;PMS5003;49477;35.676;139.586;2023-07-31T09:10:27;4;3;
62846;PMS5003;49477;35.676;139.586;2023-07-31T09:12:56;1;1;
62846;PMS5003;49477;35.676;139.586;2023-07-31T09:15:28;1;1;
62846;PMS5003;49477;35.676;139.586;2023-07-31T09:18:00;1;1;
62846;PMS5003;49477;35.676;139.586;2023-07-31T09:20:30;1;1;
62846;PMS5003;49477;35.676;139.586;2023-07-31T09:23:08;1;1;
62846;PMS5003;49477;35.676;139.586;2023-07-31T09:25:41;1;1;
62846;PMS5003;49477;35.676;139.586;2023-07-31T09:28:12;2;2;
62846;PMS5003;49477;35.676;139.586;2023-07-31T09:30:46;1;1;
62846;PMS5003;49477;35.676;139.586;2023-07-31T09:33:18;1;1;
62846;PMS5003;49477;35.676;139.586;2023-07-31T09:35:48;1;1;
62846;PMS5003;49477;35.676;139.586;2023-07-31T09:38:18;2;2;
62846;PMS5003;49477;35.676;139.586;2023-07-31T09:40:48;2;2;
62846;PMS5003;49477;35.676;139.586;2023-07-31T09:43:17;1;1;
62846;PMS5003;49477;35.676;139.586;2023-07-31T09:45:48;2;2;
62846;PMS5003;49477;35.676;139.586;2023-07-31T09:48:24;2;2;
62846;PMS5003;49477;35.676;139.586;2023-07-31T09:50:53;2;2;
62846;PMS5003;49477;35.676;139.586;2023-07-31T09:53:27;0;0;
62846;PMS5003;49477;35.676;139.586;2023-07-31T09:55:58;1;1;
62846;PMS5003;49477;35.676;139.586;2023-07-31T09:58:28;1;1;
62846;PMS5003;49477;35.676;139.586;2023-07-31T10:01:00;1;1;
62846;PMS5003;49477;35.676;139.586;2023-07-31T10:03:31;1;1;
62846;PMS5003;49477;35.676;139.586;2023-07-31T10:06:04;1;1;
62846;PMS5003;49477;35.676;139.586;2023-07-31T10:08:36;0;0;
62846;PMS5003;49477;35.676;139.586;2023-07-31T10:11:07;0;0;
62846;PMS5003;49477;35.676;139.586;2023-07-31T10:13:39;1;1;
62846;PMS5003;49477;35.676;139.586;2023-07-31T10:16:10;0;0;
62846;PMS5003;49477;35.676;139.586;2023-07-31T10:18:39;1;1;
62846;PMS5003;49477;35.676;139.586;2023-07-31T10:21:10;1;1;
62846;PMS5003;49477;35.676;139.586;2023-07-31T10:23:44;1;1;
62846;PMS5003;49477;35.676;139.586;2023-07-31T10:26:16;0;0;
62846;PMS5003;49477;35.676;139.586;2023-07-31T10:28:46;0;0;
62846;PMS5003;49477;35.676;139.586;2023-07-31T10:31:19;1;1;
62846;PMS5003;49477;35.676;139.586;2023-07-31T10:33:49;2;1;
62846;PMS5003;49477;35.676;139.586;2023-07-31T10:36:20;1;1;
62846;PMS5003;49477;35.676;139.586;2023-07-31T10:38:50;1;1;
62846;PMS5003;49477;35.676;139.586;2023-07-31T10:41:19;1;1;
62846;PMS5003;49477;35.676;139.586;2023-07-31T10:43:55;2;1;
62846;PMS5003;49477;35.676;139.586;2023-07-31T10:46:28;1;1;
62846;PMS5003;49477;35.676;139.586;2023-07-31T10:48:58;1;0;
62846;PMS5003;49477;35.676;139.586;2023-07-31T10:51:34;2;2;
62846;PMS5003;49477;35.676;139.586;2023-07-31T10:54:11;2;1;
62846;PMS5003;49477;35.676;139.586;2023-07-31T10:56:46;0;0;
62846;PMS5003;49477;35.676;139.586;2023-07-31T10:59:18;3;2;
62846;PMS5003;49477;35.676;139.586;2023-07-31T11:01:51;3;3;
62846;PMS5003;49477;35.676;139.586;2023-07-31T11:04:23;1;1;
62846;PMS5003;49477;35.676;139.586;2023-07-31T11:06:56;1;0;
62846;PMS5003;49477;35.676;139.586;2023-07-31T11:09:33;1;1;
62846;PMS5003;49477;35.676;139.586;2023-07-31T11:12:03;3;1;
62846;PMS5003;49477;35.676;139.586;2023-07-31T11:14:32;0;0;
62846;PMS5003;49477;35.676;139.586;2023-07-31T11:17:07;1;1;
62846;PMS5003;49477;35.676;139.586;2023-07-31T11:19:39;2;2;
62846;PMS5003;49477;35.676;139.586;2023-07-31T11:22:08;1;1;
62846;PMS5003;49477;35.676;139.586;2023-07-31T11:24:38;0;0;
62846;PMS5003;49477;35.676;139.586;2023-07-31T11:27:08;2;2;
62846;PMS5003;49477;35.676;139.586;2023-07-31T11:29:38;2;1;
62846;PMS5003;49477;35.676;139.586;2023-07-31T11:32:15;1;1;
62846;PMS5003;49477;35.676;139.586;2023-07-31T11:34:51;3;1;
62846;PMS5003;49477;35.676;139.586;2023-07-31T11:37:20;3;1;
62846;PMS5003;49477;35.676;139.586;2023-07-31T11:39:59;3;2;
62846;PMS5003;49477;35.676;139.586;2023-07-31T11:42:29;0;0;
62846;PMS5003;49477;35.676;139.586;2023-07-31T11:45:01;1;1;
62846;PMS5003;49477;35.676;139.586;2023-07-31T11:47:32;1;1;
62846;PMS5003;49477;35.676;139.586;2023-07-31T11:50:04;1;1;
62846;PMS5003;49477;35.676;139.586;2023-07-31T11:52:43;2;1;
62846;PMS5003;49477;35.676;139.586;2023-07-31T11:55:16;1;1;
62846;PMS5003;49477;35.676;139.586;2023-07-31T11:57:46;1;1;
62846;PMS5003;49477;35.676;139.586;2023-07-31T12:00:16;2;1;
62846;PMS5003;49477;35.676;139.586;2023-07-31T12:02:48;2;2;
62846;PMS5003;49477;35.676;139.586;2023-07-31T12:05:18;2;1;
62846;PMS5003;49477;35.676;139.586;2023-07-31T12:07:51;3;3;
62846;PMS5003;49477;35.676;139.586;2023-07-31T12:10:24;1;1;
62846;PMS5003;49477;35.676;139.586;2023-07-31T12:12:59;1;1;
62846;PMS5003;49477;35.676;139.586;2023-07-31T12:15:33;1;1;
62846;PMS5003;49477;35.676;139.586;2023-07-31T12:18:06;3;3;
62846;PMS5003;49477;35.676;139.586;2023-07-31T12:20:41;1;1;
62846;PMS5003;49477;35.676;139.586;2023-07-31T12:23:15;1;1;
62846;PMS5003;49477;35.676;139.586;2023-07-31T12:26:00;3;3;
62846;PMS5003;49477;35.676;139.586;2023-07-31T12:28:34;2;2;
62846;PMS5003;49477;35.676;139.586;2023-07-31T12:31:04;1;1;
62846;PMS5003;49477;35.676;139.586;2023-07-31T12:33:38;2;2;
62846;PMS5003;49477;35.676;139.586;2023-07-31T12:36:10;3;2;
62846;PMS5003;49477;35.676;139.586;2023-07-31T12:38:41;1;1;
62846;PMS5003;49477;35.676;139.586;2023-07-31T12:41:12;1;1;
62846;PMS5003;49477;35.676;139.586;2023-07-31T12:43:42;1;1;
62846;PMS5003;49477;35.676;139.586;2023-07-31T12:46:12;2;1;
62846;PMS5003;49477;35.676;139.586;2023-07-31T12:48:42;1;1;
62846;PMS5003;49477;35.676;139.586;2023-07-31T12:51:12;2;1;
62846;PMS5003;49477;35.676;139.586;2023-07-31T12:53:41;1;1;
62846;PMS5003;49477;35.676;139.586;2023-07-31T12:56:10;2;2;
62846;PMS5003;49477;35.676;139.586;2023-07-31T12:58:41;0;0;
62846;PMS5003;49477;35.676;139.586;2023-07-31T13:01:10;2;2;
62846;PMS5003;49477;35.676;139.586;2023-07-31T13:03:40;1;1;
62846;PMS5003;49477;35.676;139.586;2023-07-31T13:06:10;2;2;
62846;PMS5003;49477;35.676;139.586;2023-07-31T13:08:40;1;1;
62846;PMS5003;49477;35.676;139.586;2023-07-31T13:11:09;1;1;
62846;PMS5003;49477;35.676;139.586;2023-07-31T13:13:40;2;2;
62846;PMS5003;49477;35.676;139.586;2023-07-31T13:16:19;1;1;
62846;PMS5003;49477;35.676;139.586;2023-07-31T13:18:50;3;3;
62846;PMS5003;49477;35.676;139.586;2023-07-31T13:21:20;2;2;
62846;PMS5003;49477;35.676;139.586;2023-07-31T13:23:50;1;1;
62846;PMS5003;49477;35.676;139.586;2023-07-31T13:26:20;1;1;
62846;PMS5003;49477;35.676;139.586;2023-07-31T13:28:50;1;1;
62846;PMS5003;49477;35.676;139.586;2023-07-31T13:31:19;2;2;
62846;PMS5003;49477;35.676;139.586;2023-07-31T13:33:51;0;0;
62846;PMS5003;49477;35.676;139.586;2023-07-31T13:36:20;1;1;
62846;PMS5003;49477;35.676;139.586;2023-07-31T13:38:49;2;2;
62846;PMS5003;49477;35.676;139.586;2023-07-31T13:41:19;2;2;
62846;PMS5003;49477;35.676;139.586;2023-07-31T13:43:49;3;2;
62846;PMS5003;49477;35.676;139.586;2023-07-31T13:46:18;2;2;
62846;PMS5003;49477;35.676;139.586;2023-07-31T13:48:53;2;2;
62846;PMS5003;49477;35.676;139.586;2023-07-31T13:51:22;4;4;
62846;PMS5003;49477;35.676;139.586;2023-07-31T13:53:52;4;2;
62846;PMS5003;49477;35.676;139.586;2023-07-31T13:56:21;2;2;
62846;PMS5003;49477;35.676;139.586;2023-07-31T13:58:52;1;1;
62846;PMS5003;49477;35.676;139.586;2023-07-31T14:01:23;0;0;
62846;PMS5003;49477;35.676;139.586;2023-07-31T14:03:55;1;1;
62846;PMS5003;49477;35.676;139.586;2023-07-31T14:06:24;2;1;
62846;PMS5003;49477;35.676;139.586;2023-07-31T14:08:53;2;2;
62846;PMS5003;49477;35.676;139.586;2023-07-31T14:11:23;1;1;
62846;PMS5003;49477;35.676;139.586;2023-07-31T14:13:53;3;3;
62846;PMS5003;49477;35.676;139.586;2023-07-31T14:16:24;5;3;
62846;PMS5003;49477;35.676;139.586;2023-07-31T14:18:56;3;3;
62846;PMS5003;49477;35.676;139.586;2023-07-31T14:21:25;2;2;
62846;PMS5003;49477;35.676;139.586;2023-07-31T14:23:54;2;2;
62846;PMS5003;49477;35.676;139.586;2023-07-31T14:26:25;2;2;
62846;PMS5003;49477;35.676;139.586;2023-07-31T14:28:54;1;1;
62846;PMS5003;49477;35.676;139.586;2023-07-31T14:31:26;2;2;
62846;PMS5003;49477;35.676;139.586;2023-07-31T14:33:56;0;0;
62846;PMS5003;49477;35.676;139.586;2023-07-31T14:36:26;2;2;
62846;PMS5003;49477;35.676;139.586;2023-07-31T14:38:56;1;1;
62846;PMS5003;49477;35.676;139.586;2023-07-31T14:41:27;4;4;
62846;PMS5003;49477;35.676;139.586;2023-07-31T14:43:56;1;1;
62846;PMS5003;49477;35.676;139.586;2023-07-31T14:46:29;2;2;
62846;PMS5003;49477;35.676;139.586;2023-07-31T14:48:58;2;2;
62846;PMS5003;49477;35.676;139.586;2023-07-31T14:51:28;3;3;
62846;PMS5003;49477;35.676;139.586;2023-07-31T14:53:59;3;3;
62846;PMS5003;49477;35.676;139.586;2023-07-31T14:56:28;2;2;
62846;PMS5003;49477;35.676;139.586;2023-07-31T14:58:57;2;2;
62846;PMS5003;49477;35.676;139.586;2023-07-31T15:01:31;3;3;
62846;PMS5003;49477;35.676;139.586;2023-07-31T15:04:01;2;2;
62846;PMS5003;49477;35.676;139.586;2023-07-31T15:06:30;2;2;
62846;PMS5003;49477;35.676;139.586;2023-07-31T15:09:00;2;2;
62846;PMS5003;49477;35.676;139.586;2023-07-31T15:11:31;2;2;
62846;PMS5003;49477;35.676;139.586;2023-07-31T15:14:01;1;1;
62846;PMS5003;49477;35.676;139.586;2023-07-31T15:16:37;2;2;
62846;PMS5003;49477;35.676;139.586;2023-07-31T15:19:07;2;2;
62846;PMS5003;49477;35.676;139.586;2023-07-31T15:21:38;2;1;
62846;PMS5003;49477;35.676;139.586;2023-07-31T15:24:09;4;3;
62846;PMS5003;49477;35.676;139.586;2023-07-31T15:26:42;2;2;
62846;PMS5003;49477;35.676;139.586;2023-07-31T15:29:11;4;4;
62846;PMS5003;49477;35.676;139.586;2023-07-31T15:31:41;3;3;
62846;PMS5003;49477;35.676;139.586;2023-07-31T15:34:11;1;1;
62846;PMS5003;49477;35.676;139.586;2023-07-31T15:36:42;4;4;
62846;PMS5003;49477;35.676;139.586;2023-07-31T15:39:12;3;3;
62846;PMS5003;49477;35.676;139.586;2023-07-31T15:41:41;2;2;
62846;PMS5003;49477;35.676;139.586;2023-07-31T15:44:10;3;3;
62846;PMS5003;49477;35.676;139.586;2023-07-31T15:46:41;2;2;
62846;PMS5003;49477;35.676;139.586;2023-07-31T15:49:14;2;2;
62846;PMS5003;49477;35.676;139.586;2023-07-31T15:51:48;3;3;
62846;PMS5003;49477;35.676;139.586;2023-07-31T15:54:20;5;4;
62846;PMS5003;49477;35.676;139.586;2023-07-31T15:56:49;2;2;
62846;PMS5003;49477;35.676;139.586;2023-07-31T15:59:19;5;4;
62846;PMS5003;49477;35.676;139.586;2023-07-31T16:01:49;6;6;
62846;PMS5003;49477;35.676;139.586;2023-07-31T16:04:19;4;4;
62846;PMS5003;49477;35.676;139.586;2023-07-31T16:06:49;5;5;
62846;PMS5003;49477;35.676;139.586;2023-07-31T16:09:19;5;4;
62846;PMS5003;49477;35.676;139.586;2023-07-31T16:11:49;4;4;
62846;PMS5003;49477;35.676;139.586;2023-07-31T16:14:17;5;5;
62846;PMS5003;49477;35.676;139.586;2023-07-31T16:16:47;6;6;
62846;PMS5003;49477;35.676;139.586;2023-07-31T16:19:16;9;6;
62846;PMS5003;49477;35.676;139.586;2023-07-31T16:21:46;6;6;
62846;PMS5003;49477;35.676;139.586;2023-07-31T16:24:15;6;6;
62846;PMS5003;49477;35.676;139.586;2023-07-31T16:26:45;5;5;
62846;PMS5003;49477;35.676;139.586;2023-07-31T16:29:14;7;7;
62846;PMS5003;49477;35.676;139.586;2023-07-31T16:31:43;8;6;
62846;PMS5003;49477;35.676;139.586;2023-07-31T16:34:14;8;7;
62846;PMS5003;49477;35.676;139.586;2023-07-31T16:36:44;7;7;
62846;PMS5003;49477;35.676;139.586;2023-07-31T16:39:15;7;7;
62846;PMS5003;49477;35.676;139.586;2023-07-31T16:41:45;5;5;